createdAt,value
2022-12-24T00:00:04.078Z,1002.72
2022-12-24T00:01:04.339Z,1002.87
2022-12-24T00:02:04.738Z,1002.81
2022-12-24T00:03:05.020Z,1002.87
2022-12-24T00:04:05.197Z,1002.83
2022-12-24T00:05:05.561Z,1002.86
2022-12-24T00:06:05.826Z,1002.90
2022-12-24T00:07:06.073Z,1002.95
2022-12-24T00:08:06.376Z,1002.94
2022-12-24T00:09:06.652Z,1002.94
2022-12-24T00:10:06.931Z,1002.87
2022-12-24T00:11:07.191Z,1002.85
2022-12-24T00:12:07.504Z,1002.79
2022-12-24T00:13:07.813Z,1002.88
2022-12-24T00:14:08.090Z,1002.80
2022-12-24T00:15:08.372Z,1002.89
2022-12-24T00:16:08.669Z,1002.94
2022-12-24T00:17:09.012Z,1002.87
2022-12-24T00:18:09.306Z,1002.94
2022-12-24T00:19:09.556Z,1002.94
2022-12-24T00:20:09.853Z,1002.94
2022-12-24T00:21:10.178Z,1002.96
2022-12-24T00:22:10.474Z,1002.95
2022-12-24T00:23:10.742Z,1002.98
2022-12-24T00:24:11.000Z,1003.02
2022-12-24T00:25:11.331Z,1003.09
2022-12-24T00:26:11.572Z,1003.07
2022-12-24T00:27:11.876Z,1003.05
2022-12-24T00:28:12.204Z,1003.05
2022-12-24T00:29:12.499Z,1003.05
2022-12-24T00:30:12.732Z,1003.05
2022-12-24T00:31:13.157Z,1003.07
2022-12-24T00:32:13.300Z,1003.08
2022-12-24T00:33:15.339Z,1003.06
2022-12-24T00:34:13.913Z,1003.09
2022-12-24T00:35:14.230Z,1003.14
2022-12-24T00:36:14.476Z,1003.17
2022-12-24T00:37:14.754Z,1003.07
2022-12-24T00:38:15.055Z,1003.08
2022-12-24T00:39:15.378Z,1003.10
2022-12-24T00:40:15.682Z,1003.08
2022-12-24T00:41:15.920Z,1003.12
2022-12-24T00:42:16.195Z,1003.07
2022-12-24T00:43:16.530Z,1003.02
2022-12-24T00:44:16.800Z,1003.02
2022-12-24T00:45:17.101Z,1003.04
2022-12-24T00:46:17.400Z,1003.01
2022-12-24T00:47:17.704Z,1003.00
2022-12-24T00:48:18.043Z,1003.04
2022-12-24T00:49:18.310Z,1002.95
2022-12-24T00:50:18.565Z,1002.96
2022-12-24T00:51:18.884Z,1003.04
2022-12-24T00:52:19.133Z,1003.04
2022-12-24T00:53:19.447Z,1003.13
2022-12-24T00:54:19.734Z,1003.06
2022-12-24T00:55:20.075Z,1003.07
2022-12-24T00:56:20.318Z,1003.12
2022-12-24T00:57:20.614Z,1003.15
2022-12-24T00:58:20.925Z,1003.12
2022-12-24T00:59:21.207Z,1003.13
2022-12-24T01:00:21.464Z,1003.17
2022-12-24T01:01:21.850Z,1003.15
2022-12-24T01:02:23.181Z,1003.14
2022-12-24T01:03:22.348Z,1003.16
2022-12-24T01:04:22.586Z,1003.21
2022-12-24T01:05:22.924Z,1003.20
2022-12-24T01:06:23.162Z,1003.21
2022-12-24T01:07:23.479Z,1003.20
2022-12-24T01:08:23.802Z,1003.22
2022-12-24T01:09:24.065Z,1003.23
2022-12-24T01:10:24.369Z,1003.28
2022-12-24T01:11:24.681Z,1003.24
2022-12-24T01:12:24.925Z,1003.26
2022-12-24T01:13:25.226Z,1003.28
2022-12-24T01:14:25.486Z,1003.32
2022-12-24T01:15:25.786Z,1003.36
2022-12-24T01:16:26.188Z,1003.28
2022-12-24T01:17:26.341Z,1003.32
2022-12-24T01:18:26.594Z,1003.34
2022-12-24T01:19:26.916Z,1003.35
2022-12-24T01:20:27.225Z,1003.42
2022-12-24T01:21:27.465Z,1003.45
2022-12-24T01:22:27.806Z,1003.45
2022-12-24T01:23:28.082Z,1003.47
2022-12-24T01:24:28.341Z,1003.44
2022-12-24T01:25:28.625Z,1003.55
2022-12-24T01:26:28.919Z,1003.53
2022-12-24T01:27:29.236Z,1003.51
2022-12-24T01:28:29.519Z,1003.54
2022-12-24T01:29:29.767Z,1003.50
2022-12-24T01:30:30.090Z,1003.62
2022-12-24T01:31:30.417Z,1003.59
2022-12-24T01:32:30.693Z,1003.60
2022-12-24T01:33:30.981Z,1003.59
2022-12-24T01:34:31.262Z,1003.52
2022-12-24T01:35:31.538Z,1003.51
2022-12-24T01:36:31.833Z,1003.59
2022-12-24T01:37:32.146Z,1003.64
2022-12-24T01:38:32.414Z,1003.60
2022-12-24T01:39:32.704Z,1003.54
2022-12-24T01:40:32.978Z,1003.57
2022-12-24T01:41:33.273Z,1003.52
2022-12-24T01:42:33.567Z,1003.59
2022-12-24T01:43:33.876Z,1003.48
2022-12-24T01:44:37.007Z,1003.53
2022-12-24T01:45:34.394Z,1003.62
2022-12-24T01:46:34.775Z,1003.60
2022-12-24T01:47:35.047Z,1003.65
2022-12-24T01:48:35.346Z,1003.62
2022-12-24T01:49:35.647Z,1003.66
2022-12-24T01:50:35.927Z,1003.66
2022-12-24T01:51:36.253Z,1003.70
2022-12-24T01:52:36.487Z,1003.75
2022-12-24T01:53:36.795Z,1003.73
2022-12-24T01:54:37.063Z,1003.72
2022-12-24T01:55:37.371Z,1003.69
2022-12-24T01:56:37.648Z,1003.70
2022-12-24T01:57:37.974Z,1003.74
2022-12-24T01:58:38.246Z,1003.78
2022-12-24T01:59:38.487Z,1003.79
2022-12-24T02:00:38.806Z,1003.81
2022-12-24T02:01:39.134Z,1003.86
2022-12-24T02:02:39.433Z,1003.86
2022-12-24T02:03:39.742Z,1003.85
2022-12-24T02:04:39.856Z,1003.81
2022-12-24T02:05:40.149Z,1003.77
2022-12-24T02:06:40.497Z,1003.78
2022-12-24T02:07:40.785Z,1003.83
2022-12-24T02:08:41.100Z,1003.91
2022-12-24T02:09:41.342Z,1003.92
2022-12-24T02:10:41.617Z,1003.92
2022-12-24T02:11:41.924Z,1003.94
2022-12-24T02:12:42.241Z,1003.92
2022-12-24T02:13:42.509Z,1003.98
2022-12-24T02:14:42.784Z,1003.98
2022-12-24T02:15:43.088Z,1004.05
2022-12-24T02:16:43.435Z,1004.06
2022-12-24T02:17:43.593Z,1004.04
2022-12-24T02:18:43.926Z,1004.05
2022-12-24T02:19:44.156Z,1004.06
2022-12-24T02:20:44.472Z,1004.10
2022-12-24T02:21:44.758Z,1004.17
2022-12-24T02:22:45.067Z,1004.13
2022-12-24T02:23:45.386Z,1004.11
2022-12-24T02:24:45.685Z,1004.12
2022-12-24T02:25:46.000Z,1004.15
2022-12-24T02:26:46.337Z,1004.07
2022-12-24T02:27:46.580Z,1004.14
2022-12-24T02:28:46.916Z,1004.12
2022-12-24T02:29:47.182Z,1004.13
2022-12-24T02:30:47.496Z,1004.12
2022-12-24T02:31:47.835Z,1004.13
2022-12-24T02:32:48.121Z,1004.14
2022-12-24T02:33:48.442Z,1004.19
2022-12-24T02:34:48.685Z,1004.14
2022-12-24T02:35:48.983Z,1004.20
2022-12-24T02:36:49.285Z,1004.23
2022-12-24T02:37:49.584Z,1004.32
2022-12-24T02:38:49.896Z,1004.27
2022-12-24T02:39:50.252Z,1004.31
2022-12-24T02:40:50.502Z,1004.32
2022-12-24T02:41:50.739Z,1004.34
2022-12-24T02:42:51.039Z,1004.35
2022-12-24T02:43:51.339Z,1004.37
2022-12-24T02:44:51.663Z,1004.42
2022-12-24T02:45:58.561Z,1004.40
2022-12-24T02:46:53.241Z,1004.41
2022-12-24T02:47:52.486Z,1004.46
2022-12-24T02:48:52.761Z,1004.45
2022-12-24T02:49:53.067Z,1004.52
2022-12-24T02:50:53.320Z,1004.44
2022-12-24T02:51:53.635Z,1004.40
2022-12-24T02:52:53.896Z,1004.45
2022-12-24T02:53:54.255Z,1004.41
2022-12-24T02:54:54.516Z,1004.45
2022-12-24T02:55:54.807Z,1004.49
2022-12-24T02:56:55.069Z,1004.50
2022-12-24T02:57:55.380Z,1004.61
2022-12-24T02:58:55.674Z,1004.56
2022-12-24T02:59:55.943Z,1004.52
2022-12-24T03:00:56.252Z,1004.55
2022-12-24T03:01:56.539Z,1004.56
2022-12-24T03:02:56.880Z,1004.55
2022-12-24T03:03:57.155Z,1004.56
2022-12-24T03:04:57.417Z,1004.52
2022-12-24T03:05:57.723Z,1004.55
2022-12-24T03:06:58.049Z,1004.53
2022-12-24T03:07:58.300Z,1004.50
2022-12-24T03:08:58.601Z,1004.55
2022-12-24T03:09:58.938Z,1004.59
2022-12-24T03:10:59.172Z,1004.56
2022-12-24T03:11:59.480Z,1004.52
2022-12-24T03:12:59.791Z,1004.51
2022-12-24T03:14:00.114Z,1004.47
2022-12-24T03:15:00.411Z,1004.48
2022-12-24T03:16:00.664Z,1004.53
2022-12-24T03:17:00.994Z,1004.56
2022-12-24T03:18:01.303Z,1004.55
2022-12-24T03:19:01.586Z,1004.59
2022-12-24T03:20:01.849Z,1004.57
2022-12-24T03:21:02.128Z,1004.59
2022-12-24T03:22:02.421Z,1004.60
2022-12-24T03:23:02.737Z,1004.63
2022-12-24T03:24:03.032Z,1004.61
2022-12-24T03:25:03.281Z,1004.62
2022-12-24T03:26:03.586Z,1004.61
2022-12-24T03:27:03.839Z,1004.61
2022-12-24T03:28:04.140Z,1004.69
2022-12-24T03:29:04.483Z,1004.66
2022-12-24T03:30:04.757Z,1004.68
2022-12-24T03:31:05.099Z,1004.73
2022-12-24T03:32:05.307Z,1004.75
2022-12-24T03:33:05.553Z,1004.77
2022-12-24T03:34:05.895Z,1004.78
2022-12-24T03:35:06.176Z,1004.79
2022-12-24T03:36:06.431Z,1004.80
2022-12-24T03:37:06.758Z,1004.86
2022-12-24T03:38:07.028Z,1004.82
2022-12-24T03:39:07.301Z,1004.83
2022-12-24T03:40:07.550Z,1004.85
2022-12-24T03:41:07.871Z,1004.88
2022-12-24T03:42:08.138Z,1004.89
2022-12-24T03:43:08.422Z,1004.88
2022-12-24T03:44:08.799Z,1004.85
2022-12-24T03:45:08.951Z,1004.84
2022-12-24T03:46:09.430Z,1004.87
2022-12-24T03:47:09.589Z,1004.91
2022-12-24T03:48:09.888Z,1004.88
2022-12-24T03:49:10.182Z,1004.95
2022-12-24T03:50:10.444Z,1004.97
2022-12-24T03:51:10.735Z,1004.96
2022-12-24T03:52:11.061Z,1005.02
2022-12-24T03:53:11.292Z,1004.96
2022-12-24T03:54:11.629Z,1004.95
2022-12-24T03:55:11.880Z,1004.95
2022-12-24T03:56:12.199Z,1004.96
2022-12-24T03:57:12.453Z,1004.94
2022-12-24T03:58:12.765Z,1004.94
2022-12-24T03:59:13.073Z,1004.91
2022-12-24T04:00:13.349Z,1004.91
2022-12-24T04:01:13.835Z,1004.98
2022-12-24T04:02:14.200Z,1004.99
2022-12-24T04:03:14.493Z,1005.04
2022-12-24T04:04:14.551Z,1005.03
2022-12-24T04:05:14.833Z,1005.07
2022-12-24T04:06:15.091Z,1004.97
2022-12-24T04:07:15.362Z,1004.98
2022-12-24T04:08:15.632Z,1005.02
2022-12-24T04:09:15.964Z,1005.00
2022-12-24T04:10:16.255Z,1004.97
2022-12-24T04:11:16.533Z,1005.03
2022-12-24T04:12:16.827Z,1004.97
2022-12-24T04:13:17.088Z,1005.14
2022-12-24T04:14:17.392Z,1005.06
2022-12-24T04:15:17.659Z,1005.10
2022-12-24T04:16:18.037Z,1005.11
2022-12-24T04:17:18.278Z,1005.07
2022-12-24T04:18:18.548Z,1005.09
2022-12-24T04:19:18.853Z,1005.07
2022-12-24T04:20:19.131Z,1005.05
2022-12-24T04:21:19.384Z,1005.09
2022-12-24T04:22:19.726Z,1005.04
2022-12-24T04:23:19.974Z,1005.12
2022-12-24T04:24:20.316Z,1005.19
2022-12-24T04:25:20.575Z,1005.18
2022-12-24T04:26:20.895Z,1005.14
2022-12-24T04:27:25.379Z,1005.12
2022-12-24T04:28:22.441Z,1005.18
2022-12-24T04:29:21.750Z,1005.18
2022-12-24T04:30:22.069Z,1005.16
2022-12-24T04:31:22.391Z,1005.17
2022-12-24T04:32:22.543Z,1005.10
2022-12-24T04:33:22.838Z,1005.08
2022-12-24T04:34:23.159Z,1005.10
2022-12-24T04:35:23.437Z,1005.14
2022-12-24T04:36:23.712Z,1005.19
2022-12-24T04:37:23.935Z,1005.28
2022-12-24T04:38:24.214Z,1005.34
2022-12-24T04:39:24.549Z,1005.39
2022-12-24T04:40:24.809Z,1005.42
2022-12-24T04:41:25.275Z,1005.45
2022-12-24T04:42:25.372Z,1005.46
2022-12-24T04:43:25.621Z,1005.42
2022-12-24T04:44:25.915Z,1005.38
2022-12-24T04:45:26.153Z,1005.37
2022-12-24T04:46:26.573Z,1005.41
2022-12-24T04:47:26.749Z,1005.39
2022-12-24T04:48:26.990Z,1005.45
2022-12-24T04:49:27.276Z,1005.42
2022-12-24T04:50:27.546Z,1005.35
2022-12-24T04:51:27.796Z,1005.36
2022-12-24T04:52:28.092Z,1005.35
2022-12-24T04:53:28.351Z,1005.36
2022-12-24T04:54:28.632Z,1005.33
2022-12-24T04:55:28.887Z,1005.41
2022-12-24T04:56:29.134Z,1005.41
2022-12-24T04:57:29.489Z,1005.43
2022-12-24T04:58:29.747Z,1005.44
2022-12-24T04:59:30.015Z,1005.37
2022-12-24T05:00:30.291Z,1005.37
2022-12-24T05:01:30.600Z,1005.35
2022-12-24T05:02:31.036Z,1005.29
2022-12-24T05:03:31.191Z,1005.32
2022-12-24T05:04:31.465Z,1005.34
2022-12-24T05:05:31.714Z,1005.31
2022-12-24T05:06:32.024Z,1005.29
2022-12-24T05:07:32.290Z,1005.29
2022-12-24T05:08:32.557Z,1005.28
2022-12-24T05:09:32.834Z,1005.27
2022-12-24T05:10:33.065Z,1005.31
2022-12-24T05:11:33.379Z,1005.29
2022-12-24T05:12:33.632Z,1005.29
2022-12-24T05:13:42.290Z,1005.31
2022-12-24T05:14:35.163Z,1005.27
2022-12-24T05:15:34.454Z,1005.26
2022-12-24T05:16:34.794Z,1005.26
2022-12-24T05:17:35.078Z,1005.33
2022-12-24T05:18:35.337Z,1005.38
2022-12-24T05:19:35.616Z,1005.44
2022-12-24T05:20:35.846Z,1005.48
2022-12-24T05:21:36.124Z,1005.48
2022-12-24T05:22:36.422Z,1005.43
2022-12-24T05:23:36.673Z,1005.46
2022-12-24T05:24:36.991Z,1005.48
2022-12-24T05:25:37.218Z,1005.51
2022-12-24T05:26:37.501Z,1005.50
2022-12-24T05:27:37.756Z,1005.51
2022-12-24T05:28:38.068Z,1005.48
2022-12-24T05:29:38.310Z,1005.49
2022-12-24T05:30:38.653Z,1005.59
2022-12-24T05:31:38.923Z,1005.51
2022-12-24T05:32:39.191Z,1005.54
2022-12-24T05:33:39.432Z,1005.60
2022-12-24T05:34:39.723Z,1005.60
2022-12-24T05:35:39.973Z,1005.57
2022-12-24T05:36:40.265Z,1005.60
2022-12-24T05:37:40.554Z,1005.60
2022-12-24T05:38:40.817Z,1005.58
2022-12-24T05:39:41.129Z,1005.60
2022-12-24T05:40:41.348Z,1005.62
2022-12-24T05:41:41.635Z,1005.57
2022-12-24T05:42:41.932Z,1005.61
2022-12-24T05:43:42.242Z,1005.63
2022-12-24T05:44:42.605Z,1005.61
2022-12-24T05:45:42.954Z,1005.57
2022-12-24T05:46:43.184Z,1005.62
2022-12-24T05:47:43.844Z,1005.58
2022-12-24T05:48:43.665Z,1005.54
2022-12-24T05:49:43.985Z,1005.61
2022-12-24T05:50:44.255Z,1005.56
2022-12-24T05:51:44.520Z,1005.69
2022-12-24T05:52:44.794Z,1005.70
2022-12-24T05:53:45.105Z,1005.69
2022-12-24T05:54:45.405Z,1005.72
2022-12-24T05:55:45.628Z,1005.74
2022-12-24T05:56:45.946Z,1005.71
2022-12-24T05:57:46.275Z,1005.69
2022-12-24T05:58:46.544Z,1005.74
2022-12-24T05:59:46.862Z,1005.75
2022-12-24T06:00:47.109Z,1005.73
2022-12-24T06:01:47.446Z,1005.74
2022-12-24T06:02:47.714Z,1005.80
2022-12-24T06:03:47.947Z,1005.84
2022-12-24T06:04:48.318Z,1005.88
2022-12-24T06:05:48.507Z,1005.85
2022-12-24T06:06:48.749Z,1005.83
2022-12-24T06:07:49.067Z,1005.83
2022-12-24T06:08:49.372Z,1005.77
2022-12-24T06:09:49.667Z,1005.77
2022-12-24T06:10:49.909Z,1005.77
2022-12-24T06:11:50.218Z,1005.76
2022-12-24T06:12:50.519Z,1005.74
2022-12-24T06:13:50.869Z,1005.76
2022-12-24T06:14:51.154Z,1005.78
2022-12-24T06:15:51.465Z,1005.82
2022-12-24T06:16:51.710Z,1005.84
2022-12-24T06:17:51.990Z,1005.83
2022-12-24T06:18:52.300Z,1005.82
2022-12-24T06:19:52.656Z,1005.83
2022-12-24T06:20:52.911Z,1005.85
2022-12-24T06:21:53.212Z,1005.83
2022-12-24T06:22:53.548Z,1005.86
2022-12-24T06:23:53.822Z,1005.90
2022-12-24T06:24:54.119Z,1005.88
2022-12-24T06:25:54.371Z,1005.91
2022-12-24T06:26:54.708Z,1005.92
2022-12-24T06:27:54.986Z,1005.97
2022-12-24T06:28:55.289Z,1005.98
2022-12-24T06:29:55.587Z,1005.95
2022-12-24T06:31:02.377Z,1005.95
2022-12-24T06:31:57.304Z,1005.98
2022-12-24T06:32:56.395Z,1005.98
2022-12-24T06:33:56.721Z,1005.99
2022-12-24T06:34:57.070Z,1005.97
2022-12-24T06:35:57.330Z,1005.97
2022-12-24T06:36:57.569Z,1006.00
2022-12-24T06:37:57.850Z,1006.04
2022-12-24T06:38:58.158Z,1006.06
2022-12-24T06:39:58.460Z,1006.04
2022-12-24T06:40:58.730Z,1006.08
2022-12-24T06:41:59.011Z,1006.07
2022-12-24T06:42:59.310Z,1006.09
2022-12-24T06:43:59.638Z,1006.10
2022-12-24T06:45:07.450Z,1006.12
2022-12-24T06:46:01.230Z,1006.15
2022-12-24T06:47:00.549Z,1006.18
2022-12-24T06:48:00.688Z,1006.21
2022-12-24T06:49:00.940Z,1006.23
2022-12-24T06:50:01.221Z,1006.22
2022-12-24T06:51:01.481Z,1006.22
2022-12-24T06:52:01.808Z,1006.27
2022-12-24T06:53:02.081Z,1006.25
2022-12-24T06:54:02.340Z,1006.34
2022-12-24T06:55:02.679Z,1006.32
2022-12-24T06:56:02.957Z,1006.37
2022-12-24T06:57:03.247Z,1006.36
2022-12-24T06:58:03.520Z,1006.41
2022-12-24T06:59:05.701Z,1006.44
2022-12-24T07:00:04.286Z,1006.46
2022-12-24T07:01:04.513Z,1006.50
2022-12-24T07:02:04.846Z,1006.50
2022-12-24T07:03:05.014Z,1006.51
2022-12-24T08:28:28.372Z,1007.14
2022-12-24T08:29:15.216Z,1007.19
2022-12-24T08:30:20.586Z,1007.23
2022-12-24T08:31:16.146Z,1007.21
2022-12-24T08:32:15.280Z,1007.21
2022-12-24T08:33:15.647Z,1007.17
2022-12-24T08:34:15.979Z,1007.16
2022-12-24T08:35:16.280Z,1007.18
2022-12-24T08:36:16.645Z,1007.18
2022-12-24T08:37:16.973Z,1007.18
2022-12-24T08:38:17.277Z,1007.12
2022-12-24T08:39:17.616Z,1007.18
2022-12-24T08:40:17.930Z,1007.25
2022-12-24T08:41:25.155Z,1007.25
2022-12-24T08:42:18.494Z,1007.26
2022-12-24T08:43:18.695Z,1007.27
2022-12-24T08:44:19.035Z,1007.34
2022-12-24T08:47:41.169Z,0.00
2022-12-24T08:48:39.497Z,0.00
2022-12-24T08:49:41.097Z,0.00
2022-12-24T08:50:39.501Z,0.00
2022-12-24T08:51:39.549Z,0.00
2022-12-24T08:52:39.524Z,0.00
2022-12-24T08:53:39.571Z,0.00
2022-12-24T08:54:39.571Z,0.00
2022-12-24T08:55:39.596Z,0.00
2022-12-24T08:56:39.592Z,0.00
2022-12-24T08:57:39.592Z,0.00
2022-12-24T08:58:39.629Z,0.00
2022-12-24T08:59:39.639Z,0.00
2022-12-24T09:00:39.688Z,0.00
2022-12-24T09:01:39.858Z,0.00
2022-12-24T09:02:39.787Z,0.00
2022-12-24T09:03:39.711Z,0.00
2022-12-24T09:04:39.738Z,0.00
2022-12-24T09:05:39.733Z,0.00
2022-12-24T09:06:39.762Z,0.00
2022-12-24T09:07:39.758Z,0.00
2022-12-24T09:08:39.802Z,0.00
2022-12-24T09:09:39.831Z,0.00
2022-12-24T09:10:39.834Z,0.00
2022-12-24T09:11:39.825Z,0.00
2022-12-24T09:12:39.867Z,0.00
2022-12-24T09:13:39.881Z,0.00
2022-12-24T09:14:39.868Z,0.00
2022-12-24T09:15:39.909Z,0.00
2022-12-24T09:16:39.885Z,0.00
2022-12-24T09:17:39.929Z,0.00
2022-12-24T09:18:39.938Z,0.00
2022-12-24T09:19:39.983Z,0.00
2022-12-24T09:20:44.354Z,0.00
2022-12-24T09:21:40.964Z,0.00
2022-12-24T09:22:40.043Z,0.00
2022-12-24T09:23:40.005Z,0.00
2022-12-24T09:24:40.061Z,0.00
2022-12-24T09:25:40.064Z,0.00
2022-12-24T09:26:40.103Z,0.00
2022-12-24T09:27:40.096Z,0.00
2022-12-24T09:28:40.128Z,0.00
2022-12-24T09:29:40.152Z,0.00
2022-12-24T09:30:40.115Z,0.00
2022-12-24T09:31:40.168Z,0.00
2022-12-24T09:32:40.147Z,0.00
2022-12-24T09:33:40.183Z,0.00
2022-12-24T09:34:40.195Z,0.00
2022-12-24T09:35:40.233Z,0.00
2022-12-24T09:36:40.225Z,0.00
2022-12-24T09:37:40.225Z,0.00
2022-12-24T09:38:40.343Z,0.00
2022-12-24T09:39:40.277Z,0.00
2022-12-24T09:40:40.312Z,0.00
2022-12-24T09:41:40.323Z,0.00
2022-12-24T09:42:40.342Z,0.00
2022-12-24T09:43:40.326Z,0.00
2022-12-24T09:44:40.376Z,0.00
2022-12-24T09:45:40.444Z,0.00
2022-12-24T09:46:40.376Z,0.00
2022-12-24T09:47:40.422Z,0.00
2022-12-24T09:48:40.434Z,0.00
2022-12-24T09:49:40.467Z,0.00
2022-12-24T09:50:40.469Z,0.00
2022-12-24T09:51:40.482Z,0.00
2022-12-24T09:52:40.485Z,0.00
2022-12-24T09:53:40.535Z,0.00
2022-12-24T09:54:45.955Z,0.00
2022-12-24T09:55:41.563Z,0.00
2022-12-24T09:56:40.619Z,0.00
2022-12-24T09:57:40.564Z,0.00
2022-12-24T09:58:40.575Z,0.00
2022-12-24T09:59:40.654Z,0.00
2022-12-24T10:00:46.069Z,0.00
2022-12-24T10:01:41.759Z,0.00
2022-12-24T10:02:40.829Z,0.00
2022-12-24T10:03:40.702Z,0.00
2022-12-24T10:04:40.715Z,0.00
2022-12-24T10:05:40.707Z,0.00
2022-12-24T10:06:40.713Z,0.00
2022-12-24T10:07:40.726Z,0.00
2022-12-24T10:08:40.773Z,0.00
2022-12-24T10:09:40.808Z,0.00
2022-12-24T10:10:40.803Z,0.00
2022-12-24T10:11:40.796Z,0.00
2022-12-24T10:12:44.542Z,0.00
2022-12-24T10:13:41.856Z,0.00
2022-12-24T10:14:40.867Z,0.00
2022-12-24T10:15:40.865Z,0.00
2022-12-24T10:16:40.950Z,0.00
2022-12-24T10:17:40.935Z,0.00
2022-12-24T10:18:45.622Z,0.00
2022-12-24T10:19:41.956Z,0.00
2022-12-24T10:20:40.947Z,0.00
2022-12-24T10:21:40.980Z,0.00
2022-12-24T10:22:40.975Z,0.00
2022-12-24T10:23:41.008Z,0.00
2022-12-24T10:24:46.395Z,0.00
2022-12-24T10:25:42.145Z,0.00
2022-12-24T10:26:41.056Z,0.00
2022-12-24T10:27:41.066Z,0.00
2022-12-24T10:28:41.063Z,0.00
2022-12-24T10:29:41.106Z,0.00
2022-12-24T10:30:41.141Z,0.00
2022-12-24T10:31:41.108Z,0.00
2022-12-24T10:32:41.119Z,0.00
2022-12-24T10:33:41.169Z,0.00
2022-12-24T10:34:41.173Z,0.00
2022-12-24T10:35:41.247Z,0.00
2022-12-24T10:36:41.209Z,0.00
2022-12-24T10:37:41.225Z,0.00
2022-12-24T10:38:41.234Z,0.00
2022-12-24T10:39:41.259Z,0.00
2022-12-24T10:40:41.312Z,0.00
2022-12-24T10:41:41.965Z,0.00
2022-12-24T10:42:48.137Z,0.00
2022-12-24T10:43:42.334Z,0.00
2022-12-24T10:44:41.311Z,0.00
2022-12-24T10:45:41.385Z,0.00
2022-12-24T10:46:41.444Z,0.00
2022-12-24T10:47:41.362Z,0.00
2022-12-24T10:48:48.313Z,0.00
2022-12-24T10:49:42.416Z,0.00
2022-12-24T10:50:41.446Z,0.00
2022-12-24T10:51:41.446Z,0.00
2022-12-24T10:52:41.455Z,0.00
2022-12-24T10:53:41.449Z,0.00
2022-12-24T10:54:41.557Z,0.00
2022-12-24T10:55:41.497Z,0.00
2022-12-24T10:56:41.529Z,0.00
2022-12-24T10:57:41.526Z,0.00
2022-12-24T10:58:41.567Z,0.00
2022-12-24T10:59:41.529Z,0.00
2022-12-24T11:00:41.559Z,0.00
2022-12-24T11:01:41.675Z,0.00
2022-12-24T11:02:41.852Z,0.00
2022-12-24T11:03:41.620Z,0.00
2022-12-24T11:04:41.628Z,0.00
2022-12-24T11:05:41.731Z,0.00
2022-12-24T11:06:47.601Z,0.00
2022-12-24T11:07:42.687Z,0.00
2022-12-24T11:08:41.700Z,0.00
2022-12-24T11:09:41.718Z,0.00
2022-12-24T11:10:41.739Z,0.00
2022-12-24T11:11:41.815Z,0.00
2022-12-24T11:12:41.807Z,0.00
2022-12-24T11:13:41.857Z,0.00
2022-12-24T11:14:41.831Z,0.00
2022-12-24T11:15:41.875Z,0.00
2022-12-24T11:16:41.865Z,0.00
2022-12-24T11:17:41.860Z,0.00
2022-12-24T11:18:48.604Z,0.00
2022-12-24T11:19:42.871Z,0.00
2022-12-24T11:20:41.946Z,0.00
2022-12-24T11:21:41.912Z,0.00
2022-12-24T11:22:41.929Z,0.00
2022-12-24T11:23:41.957Z,0.00
2022-12-24T11:24:48.115Z,0.00
2022-12-24T11:25:42.978Z,0.00
2022-12-24T11:26:42.002Z,0.00
2022-12-24T11:27:42.048Z,0.00
2022-12-24T11:28:42.031Z,0.00
2022-12-24T11:29:42.057Z,0.00
2022-12-24T11:30:42.106Z,0.00
2022-12-24T11:31:42.111Z,0.00
2022-12-24T11:32:42.110Z,0.00
2022-12-24T11:33:42.101Z,0.00
2022-12-24T11:34:42.121Z,0.00
2022-12-24T11:35:42.140Z,0.00
2022-12-24T11:36:42.200Z,0.00
2022-12-24T11:37:42.166Z,0.00
2022-12-24T11:38:42.170Z,0.00
2022-12-24T11:39:42.236Z,0.00
2022-12-24T11:40:42.245Z,0.00
2022-12-24T11:41:42.242Z,0.00
2022-12-24T11:42:42.277Z,0.00
2022-12-24T11:43:42.254Z,0.00
2022-12-24T11:44:42.310Z,0.00
2022-12-24T11:45:42.302Z,0.00
2022-12-24T11:46:42.403Z,0.00
2022-12-24T11:47:42.320Z,0.00
2022-12-24T11:48:42.367Z,0.00
2022-12-24T11:49:42.385Z,0.00
2022-12-24T11:50:42.410Z,0.00
2022-12-24T11:51:42.410Z,0.00
2022-12-24T11:52:42.423Z,0.00
2022-12-24T11:53:42.441Z,0.00
2022-12-24T11:54:42.480Z,0.00
2022-12-24T11:55:43.413Z,0.00
2022-12-24T11:56:42.525Z,0.00
2022-12-24T11:57:42.597Z,0.00
2022-12-24T11:58:42.512Z,0.00
2022-12-24T11:59:42.554Z,0.00
2022-12-24T12:00:42.526Z,0.00
2022-12-24T12:01:42.662Z,0.00
2022-12-24T12:02:42.571Z,0.00
2022-12-24T12:03:42.628Z,0.00
2022-12-24T12:04:42.578Z,0.00
2022-12-24T12:05:42.609Z,0.00
2022-12-24T12:06:42.615Z,0.00
2022-12-24T12:07:42.645Z,0.00
2022-12-24T12:08:42.640Z,0.00
2022-12-24T12:09:42.643Z,0.00
2022-12-24T12:10:42.661Z,0.00
2022-12-24T12:11:42.714Z,0.00
2022-12-24T12:12:42.719Z,0.00
2022-12-24T12:13:42.741Z,0.00
2022-12-24T12:14:42.743Z,0.00
2022-12-24T12:15:42.779Z,0.00
2022-12-24T12:16:42.839Z,0.00
2022-12-24T12:17:42.809Z,0.00
2022-12-24T12:18:42.775Z,0.00
2022-12-24T12:19:42.821Z,0.00
2022-12-24T12:20:42.841Z,0.00
2022-12-24T12:21:42.880Z,0.00
2022-12-24T12:22:42.871Z,0.00
2022-12-24T12:23:42.876Z,0.00
2022-12-24T12:24:42.921Z,0.00
2022-12-24T12:25:42.929Z,0.00
2022-12-24T12:26:42.960Z,0.00
2022-12-24T12:27:42.950Z,0.00
2022-12-24T12:28:42.983Z,0.00
2022-12-24T12:29:43.000Z,0.00
2022-12-24T12:30:43.035Z,0.00
2022-12-24T12:31:43.094Z,0.00
2022-12-24T12:32:43.053Z,0.00
2022-12-24T12:33:43.058Z,0.00
2022-12-24T12:34:43.082Z,0.00
2022-12-24T12:35:43.072Z,0.00
2022-12-24T12:36:43.103Z,0.00
2022-12-24T12:37:43.093Z,0.00
2022-12-24T12:38:43.106Z,0.00
2022-12-24T12:39:43.155Z,0.00
2022-12-24T12:40:43.155Z,0.00
2022-12-24T12:41:43.155Z,0.00
2022-12-24T12:42:43.205Z,0.00
2022-12-24T12:43:43.228Z,0.00
2022-12-24T12:44:43.240Z,0.00
2022-12-24T12:45:43.251Z,0.00
2022-12-24T12:46:43.290Z,0.00
2022-12-24T12:47:43.269Z,0.00
2022-12-24T12:48:43.275Z,0.00
2022-12-24T12:49:43.295Z,0.00
2022-12-24T12:50:43.311Z,0.00
2022-12-24T12:51:43.353Z,0.00
2022-12-24T12:52:43.372Z,0.00
2022-12-24T12:53:43.358Z,0.00
2022-12-24T12:54:43.415Z,0.00
2022-12-24T12:55:43.423Z,0.00
2022-12-24T12:56:43.415Z,0.00
2022-12-24T12:57:43.472Z,0.00
2022-12-24T12:58:43.447Z,0.00
2022-12-24T12:59:43.469Z,0.00
2022-12-24T13:00:43.532Z,0.00
2022-12-24T13:01:43.677Z,0.00
2022-12-24T13:02:43.599Z,0.00
2022-12-24T13:03:43.544Z,0.00
2022-12-24T13:04:43.557Z,0.00
2022-12-24T13:05:43.567Z,0.00
2022-12-24T13:06:43.620Z,0.00
2022-12-24T13:07:43.603Z,0.00
2022-12-24T13:08:43.619Z,0.00
2022-12-24T13:09:43.629Z,0.00
2022-12-24T13:10:43.621Z,0.00
2022-12-24T13:14:04.601Z,1008.73
2022-12-24T13:15:04.918Z,1008.67
2022-12-24T13:16:05.916Z,1008.72
2022-12-24T13:17:05.446Z,1008.73
2022-12-24T13:18:05.677Z,1008.71
2022-12-24T13:19:05.999Z,1008.68
2022-12-24T13:20:06.267Z,1008.79
2022-12-24T13:21:06.573Z,1008.74
2022-12-24T13:22:06.925Z,1008.79
2022-12-24T13:23:07.122Z,1008.79
2022-12-24T13:24:07.422Z,1008.77
2022-12-24T13:25:07.648Z,1008.74
2022-12-24T13:26:07.964Z,1008.78
2022-12-24T13:27:08.244Z,1008.79
2022-12-24T13:28:08.423Z,1008.70
2022-12-24T13:29:08.804Z,1008.72
2022-12-24T13:30:10.337Z,1008.73
2022-12-24T13:31:09.429Z,1008.68
2022-12-24T13:32:09.776Z,1008.70
2022-12-24T13:33:09.988Z,1008.71
2022-12-24T13:34:10.327Z,1008.78
2022-12-24T13:35:10.622Z,1008.80
2022-12-24T13:36:10.913Z,1008.83
2022-12-24T13:37:11.119Z,1008.89
2022-12-24T13:38:11.457Z,1008.87
2022-12-24T13:39:11.773Z,1008.87
2022-12-24T13:40:12.016Z,1008.89
2022-12-24T13:41:12.239Z,1008.91
2022-12-24T13:42:12.494Z,1008.92
2022-12-24T13:43:12.758Z,1008.96
2022-12-24T13:44:13.289Z,1008.95
2022-12-24T13:45:13.241Z,1008.96
2022-12-24T13:46:13.544Z,1008.91
2022-12-24T13:47:13.764Z,1008.95
2022-12-24T13:48:14.007Z,1008.93
2022-12-24T13:49:14.289Z,1008.90
2022-12-24T13:50:14.480Z,1008.89
2022-12-24T13:51:14.728Z,1008.87
2022-12-24T13:52:15.058Z,1008.88
2022-12-24T13:53:15.282Z,1008.91
2022-12-24T13:54:15.619Z,1008.91
2022-12-24T13:55:15.849Z,1008.93
2022-12-24T13:56:16.169Z,1008.94
2022-12-24T13:57:16.403Z,1008.98
2022-12-24T13:58:16.671Z,1008.98
2022-12-24T13:59:16.889Z,1009.04
2022-12-24T14:00:17.246Z,1009.01